Time;durP1;ratioP1;P1;durP2;ratioP2;P2;SDS_P1;SDS_P2;PMS_P1;PMS_P2;Temp;Humidity;BMP_temperature;BMP_pressure;BME280_temperature;BME280_humidity;BME280_pressure;Samples;Min_cycle;Max_cycle;Signal;HPM_P1;HPM_P2
2023/10/05 00:01:56;;;;;;;;;;;24.30;70.40;;;;;;5103663;28;19926;-50
2023/10/05 00:04:24;;;;;;;;;;;24.40;70.60;;;;;;5122826;28;20451;-48
2023/10/05 00:06:53;;;;;;;;;;;24.40;70.60;;;;;;5116057;28;19911;-52
2023/10/05 00:09:20;;;;;;;;;;;24.30;70.60;;;;;;5122669;28;19912;-49
2023/10/05 00:11:46;;;;;;;;;;;24.30;70.50;;;;;;5122235;28;19919;-48
2023/10/05 00:14:12;;;;;;;;;;;24.30;70.40;;;;;;5122922;28;19912;-49
2023/10/05 00:16:38;;;;;;;;;;;24.30;70.40;;;;;;5123223;28;19911;-50
2023/10/05 00:19:09;;;;;;;;;;;24.30;70.30;;;;;;5122708;28;20379;-50
2023/10/05 00:21:35;;;;;;;;;;;24.30;70.20;;;;;;5129928;27;19920;-49
2023/10/05 00:24:02;;;;;;;;;;;24.30;70.20;;;;;;5122543;28;19916;-48
2023/10/05 00:26:30;;;;;;;;;;;24.30;70.20;;;;;;5119249;28;19907;-48
2023/10/05 00:31:41;;;;;;;;;;;24.30;70.00;;;;;;5122509;28;19946;-49
2023/10/05 00:34:41;;;;;;;;;;;24.30;70.00;;;;;;5121127;28;19912;-48
2023/10/05 00:36:59;;;;;;;;;;;24.30;70.10;;;;;;5108056;28;20012;-49
2023/10/05 00:39:26;;;;;;;;;;;24.30;70.20;;;;;;5120048;28;19918;-48
2023/10/05 00:44:31;;;;;;;;;;;24.30;70.20;;;;;;5128263;27;19911;-49
2023/10/05 00:47:00;;;;;;;;;;;24.30;70.20;;;;;;5118494;28;19911;-49
2023/10/05 00:49:30;;;;;;;;;;;24.30;70.00;;;;;;5118889;28;19977;-48
2023/10/05 00:52:15;;;;;;;;;;;24.30;69.80;;;;;;5118589;28;19916;-48
2023/10/05 00:54:44;;;;;;;;;;;24.30;69.70;;;;;;5109204;28;19912;-53
2023/10/05 00:57:14;;;;;;;;;;;24.30;69.70;;;;;;5125012;28;19923;-49
2023/10/05 00:59:46;;;;;;;;;;;24.30;69.60;;;;;;5107298;28;19927;-49
2023/10/05 01:02:15;;;;;;;;;;;24.30;69.60;;;;;;5102165;28;19919;-49
2023/10/05 01:12:43;;;;;;;;;;;24.20;69.50;;;;;;5126075;28;19971;-49
2023/10/05 01:15:14;;;;;;;;;;;24.20;69.50;;;;;;5121193;28;19930;-52
2023/10/05 01:17:40;;;;;;;;;;;24.20;69.60;;;;;;5126080;28;19912;-51
2023/10/05 01:20:22;;;;;;;;;;;24.20;69.60;;;;;;5125249;28;19915;-49
2023/10/05 01:22:48;;;;;;;;;;;24.20;69.50;;;;;;5115126;28;19911;-49
2023/10/05 01:25:14;;;;;;;;;;;24.10;69.30;;;;;;5119631;28;19912;-51
2023/10/05 01:27:48;;;;;;;;;;;24.10;69.20;;;;;;5140159;27;19919;-51
2023/10/05 01:30:15;;;;;;;;;;;24.10;69.20;;;;;;5123709;27;19911;-52
2023/10/05 01:32:41;;;;;;;;;;;24.10;69.10;;;;;;5125229;27;19978;-51
2023/10/05 01:35:09;;;;;;;;;;;24.10;69.20;;;;;;5123093;27;19912;-51
2023/10/05 01:37:36;;;;;;;;;;;24.10;69.00;;;;;;5122337;27;20014;-53
2023/10/05 01:40:11;;;;;;;;;;;24.10;69.10;;;;;;5100859;28;19919;-52
2023/10/05 01:42:40;;;;;;;;;;;24.10;69.10;;;;;;5133895;27;19937;-51
2023/10/05 01:45:07;;;;;;;;;;;24.10;69.00;;;;;;5113350;27;19912;-50
2023/10/05 01:47:33;;;;;;;;;;;24.10;69.00;;;;;;5125284;28;19912;-49
2023/10/05 01:49:59;;;;;;;;;;;24.10;69.20;;;;;;5124305;27;19908;-50
2023/10/05 01:52:24;;;;;;;;;;;24.10;69.10;;;;;;5116709;28;19912;-49
2023/10/05 01:54:52;;;;;;;;;;;24.00;68.90;;;;;;5117680;28;20406;-49
2023/10/05 01:57:19;;;;;;;;;;;24.00;69.00;;;;;;5116651;27;19947;-49
2023/10/05 01:59:45;;;;;;;;;;;24.00;68.90;;;;;;5113320;28;19927;-49
2023/10/05 02:02:12;;;;;;;;;;;24.00;68.90;;;;;;5115642;28;19915;-49
2023/10/05 02:04:40;;;;;;;;;;;24.00;68.90;;;;;;5120159;27;19912;-48
2023/10/05 02:07:06;;;;;;;;;;;24.00;68.90;;;;;;5114278;27;19911;-49
2023/10/05 02:09:32;;;;;;;;;;;24.00;68.80;;;;;;5118770;28;20379;-49
2023/10/05 02:12:02;;;;;;;;;;;24.00;68.80;;;;;;5121267;27;21424;-49
2023/10/05 02:14:30;;;;;;;;;;;24.00;68.80;;;;;;5114808;28;19911;-49
2023/10/05 02:16:57;;;;;;;;;;;24.00;68.80;;;;;;5118141;28;19915;-49
2023/10/05 02:19:23;;;;;;;;;;;24.00;68.80;;;;;;5123720;28;19999;-49
2023/10/05 02:21:53;;;;;;;;;;;23.90;68.80;;;;;;5118250;28;19919;-48
2023/10/05 02:24:22;;;;;;;;;;;23.90;68.70;;;;;;5118417;27;20083;-49
2023/10/05 02:27:26;;;;;;;;;;;23.90;68.80;;;;;;5129415;27;19908;-49
2023/10/05 02:29:44;;;;;;;;;;;23.90;68.80;;;;;;5116798;28;20654;-48
2023/10/05 02:32:14;;;;;;;;;;;23.90;68.80;;;;;;5122604;28;19908;-48
2023/10/05 02:37:28;;;;;;;;;;;23.90;68.70;;;;;;5122300;28;20451;-48
2023/10/05 02:39:54;;;;;;;;;;;23.90;68.80;;;;;;5084033;28;19921;-49
2023/10/05 02:42:22;;;;;;;;;;;23.80;68.70;;;;;;5118904;28;19983;-49
2023/10/05 02:44:49;;;;;;;;;;;23.80;68.80;;;;;;5122745;28;19907;-51
2023/10/05 02:47:22;;;;;;;;;;;23.80;68.70;;;;;;5115400;28;19977;-47
2023/10/05 02:49:48;;;;;;;;;;;23.80;68.80;;;;;;5116833;28;19997;-49
2023/10/05 02:52:15;;;;;;;;;;;23.80;68.90;;;;;;5121989;27;19911;-49
2023/10/05 02:54:45;;;;;;;;;;;23.80;68.90;;;;;;5116210;27;20260;-48
2023/10/05 02:57:12;;;;;;;;;;;23.80;68.80;;;;;;5122859;27;19911;-48
2023/10/05 02:59:38;;;;;;;;;;;23.80;68.90;;;;;;5123606;28;19962;-48
2023/10/05 03:02:09;;;;;;;;;;;23.80;69.00;;;;;;5120221;28;20455;-50
2023/10/05 03:04:44;;;;;;;;;;;23.80;68.90;;;;;;5123169;28;19911;-49
2023/10/05 03:07:14;;;;;;;;;;;23.70;68.90;;;;;;5119696;28;19960;-48
2023/10/05 03:09:42;;;;;;;;;;;23.70;68.80;;;;;;5121904;28;19911;-48
2023/10/05 03:12:09;;;;;;;;;;;23.70;68.90;;;;;;5122644;28;19915;-49
2023/10/05 03:14:35;;;;;;;;;;;23.70;69.50;;;;;;5138911;27;19920;-49
2023/10/05 03:17:12;;;;;;;;;;;23.70;68.80;;;;;;5123028;27;20005;-47
2023/10/05 03:19:39;;;;;;;;;;;23.70;68.90;;;;;;5117454;28;19933;-47
2023/10/05 03:22:05;;;;;;;;;;;23.70;68.90;;;;;;5121866;28;19922;-49
2023/10/05 03:24:33;;;;;;;;;;;23.70;68.90;;;;;;5122747;27;19912;-48
2023/10/05 03:27:03;;;;;;;;;;;23.70;68.80;;;;;;5119570;28;19911;-50
2023/10/05 03:29:29;;;;;;;;;;;23.60;68.90;;;;;;5130400;27;19911;-49
2023/10/05 03:32:04;;;;;;;;;;;23.60;68.90;;;;;;5102770;28;19912;-49
2023/10/05 03:34:32;;;;;;;;;;;23.60;69.00;;;;;;5119488;28;19933;-48
2023/10/05 03:37:08;;;;;;;;;;;23.60;69.00;;;;;;5134944;27;19912;-48
2023/10/05 03:39:39;;;;;;;;;;;23.60;68.90;;;;;;5121381;28;19911;-49
2023/10/05 03:42:05;;;;;;;;;;;23.60;69.00;;;;;;5120284;28;19919;-48
2023/10/05 03:44:31;;;;;;;;;;;23.60;69.00;;;;;;5119106;27;19971;-48
2023/10/05 03:46:57;;;;;;;;;;;23.60;69.00;;;;;;5121588;28;19911;-47
2023/10/05 03:49:23;;;;;;;;;;;23.50;68.90;;;;;;5121957;28;19923;-48
2023/10/05 03:51:49;;;;;;;;;;;23.50;68.90;;;;;;5118113;28;19918;-49
2023/10/05 03:54:17;;;;;;;;;;;23.50;68.90;;;;;;5116759;28;19975;-48
2023/10/05 03:56:44;;;;;;;;;;;23.50;68.90;;;;;;5122116;28;19923;-48
2023/10/05 03:59:11;;;;;;;;;;;23.50;69.00;;;;;;5129628;27;19927;-49
2023/10/05 04:01:36;;;;;;;;;;;23.50;69.00;;;;;;5113810;28;19923;-48
2023/10/05 04:04:08;;;;;;;;;;;23.50;69.00;;;;;;5121700;28;19912;-50
2023/10/05 04:06:37;;;;;;;;;;;23.50;69.00;;;;;;5098971;28;19938;-48
2023/10/05 04:09:11;;;;;;;;;;;23.50;69.00;;;;;;5121529;28;20014;-49
2023/10/05 04:11:37;;;;;;;;;;;23.40;69.00;;;;;;5118698;28;19911;-49
2023/10/05 04:14:03;;;;;;;;;;;23.40;69.10;;;;;;5126540;28;19918;-48
2023/10/05 04:16:33;;;;;;;;;;;23.40;69.10;;;;;;5117496;28;19912;-51
2023/10/05 04:18:59;;;;;;;;;;;23.40;69.10;;;;;;5100506;28;19928;-47
2023/10/05 04:21:25;;;;;;;;;;;23.40;69.20;;;;;;5124856;28;19992;-48
2023/10/05 04:23:58;;;;;;;;;;;23.40;69.20;;;;;;5129389;27;19912;-49
2023/10/05 04:26:27;;;;;;;;;;;23.40;69.20;;;;;;5138493;27;19954;-51
2023/10/05 04:28:54;;;;;;;;;;;23.30;69.20;;;;;;5122844;28;19923;-48
2023/10/05 04:31:27;;;;;;;;;;;23.40;69.30;;;;;;5124536;27;19975;-48
2023/10/05 04:33:54;;;;;;;;;;;23.30;69.20;;;;;;5128637;27;19922;-48
2023/10/05 04:36:22;;;;;;;;;;;23.30;69.20;;;;;;5125690;27;19912;-50
2023/10/05 04:38:49;;;;;;;;;;;23.30;69.20;;;;;;5125270;28;19911;-49
2023/10/05 04:41:19;;;;;;;;;;;23.30;69.20;;;;;;5123811;28;19926;-48
2023/10/05 04:43:48;;;;;;;;;;;23.30;69.20;;;;;;5122947;28;19935;-48
2023/10/05 04:46:18;;;;;;;;;;;23.30;69.20;;;;;;5120443;27;19919;-49
2023/10/05 04:48:55;;;;;;;;;;;23.30;69.40;;;;;;5116423;28;19911;-48
2023/10/05 04:51:26;;;;;;;;;;;23.30;69.40;;;;;;5124840;28;20007;-49
2023/10/05 04:53:54;;;;;;;;;;;23.20;70.10;;;;;;5123974;28;19912;-47
2023/10/05 05:02:00;;;;;;;;;;;23.20;69.30;;;;;;5122738;28;19926;-49
2023/10/05 05:04:52;;;;;;;;;;;23.20;69.50;;;;;;5122874;28;19945;-47
2023/10/05 05:07:23;;;;;;;;;;;23.20;69.40;;;;;;5117739;27;19967;-50
2023/10/05 05:09:50;;;;;;;;;;;23.20;69.50;;;;;;5124925;28;19912;-48
2023/10/05 05:12:16;;;;;;;;;;;23.20;69.50;;;;;;5124405;28;19920;-49
2023/10/05 05:14:44;;;;;;;;;;;23.20;69.60;;;;;;5130153;27;19999;-48
2023/10/05 05:17:14;;;;;;;;;;;23.10;69.50;;;;;;5124820;28;19907;-48
2023/10/05 05:19:40;;;;;;;;;;;23.10;69.40;;;;;;5123765;28;19912;-49
2023/10/05 05:22:06;;;;;;;;;;;23.10;69.50;;;;;;5105940;28;19916;-47
2023/10/05 05:24:38;;;;;;;;;;;23.10;69.60;;;;;;5127545;27;19911;-48
2023/10/05 05:27:11;;;;;;;;;;;23.10;69.60;;;;;;5125251;28;19918;-48
2023/10/05 05:29:37;;;;;;;;;;;23.10;69.60;;;;;;5128274;27;19956;-48
2023/10/05 05:32:22;;;;;;;;;;;23.10;69.60;;;;;;5124989;28;19916;-49
2023/10/05 05:34:51;;;;;;;;;;;23.00;69.60;;;;;;5120029;28;20245;-48
2023/10/05 05:37:28;;;;;;;;;;;23.00;69.70;;;;;;5129406;27;20356;-48
2023/10/05 05:39:54;;;;;;;;;;;23.00;69.70;;;;;;5124924;28;19912;-49
2023/10/05 05:42:20;;;;;;;;;;;23.00;69.60;;;;;;5122807;28;19915;-49
2023/10/05 05:44:46;;;;;;;;;;;23.00;69.70;;;;;;5124164;27;19918;-50
2023/10/05 05:47:14;;;;;;;;;;;23.00;69.70;;;;;;5119693;28;19908;-48
2023/10/05 05:49:40;;;;;;;;;;;23.00;69.70;;;;;;5124385;28;20354;-48
2023/10/05 05:52:10;;;;;;;;;;;22.90;69.70;;;;;;5139904;27;19908;-48
2023/10/05 05:54:36;;;;;;;;;;;22.90;69.70;;;;;;5124672;27;19912;-48
2023/10/05 05:57:11;;;;;;;;;;;22.90;69.70;;;;;;5124751;28;19957;-48
2023/10/05 05:59:39;;;;;;;;;;;22.90;69.80;;;;;;5121591;27;19920;-48
2023/10/05 06:02:08;;;;;;;;;;;22.90;69.80;;;;;;5122871;27;19922;-50
2023/10/05 06:04:34;;;;;;;;;;;22.90;69.80;;;;;;5125409;28;19912;-48
2023/10/05 06:07:01;;;;;;;;;;;22.90;69.70;;;;;;5119154;27;19914;-48
2023/10/05 06:09:33;;;;;;;;;;;22.90;69.90;;;;;;5104513;28;19911;-49
2023/10/05 06:11:59;;;;;;;;;;;22.90;69.80;;;;;;5124437;28;20474;-49
2023/10/05 06:14:27;;;;;;;;;;;22.80;69.80;;;;;;5128308;27;19914;-48
2023/10/05 06:16:53;;;;;;;;;;;22.80;69.90;;;;;;5117788;28;19916;-48
2023/10/05 06:19:20;;;;;;;;;;;22.80;69.90;;;;;;5115464;28;20277;-49
2023/10/05 06:21:47;;;;;;;;;;;22.80;69.90;;;;;;5124268;27;19939;-47
2023/10/05 06:24:13;;;;;;;;;;;22.80;70.00;;;;;;5104864;28;19922;-50
2023/10/05 06:26:40;;;;;;;;;;;22.80;70.00;;;;;;5122609;28;19908;-48
2023/10/05 06:29:08;;;;;;;;;;;22.80;70.10;;;;;;5123983;27;19923;-48
2023/10/05 06:31:37;;;;;;;;;;;22.80;70.00;;;;;;5122582;28;19912;-48
2023/10/05 06:34:09;;;;;;;;;;;22.80;70.00;;;;;;5120791;28;19969;-48
2023/10/05 06:36:37;;;;;;;;;;;22.70;69.90;;;;;;5112214;27;19914;-48
2023/10/05 06:39:04;;;;;;;;;;;22.70;70.00;;;;;;5138811;27;19912;-50
2023/10/05 06:41:30;;;;;;;;;;;22.70;70.00;;;;;;5115159;28;19915;-48
2023/10/05 06:43:57;;;;;;;;;;;22.70;70.00;;;;;;5115904;27;19918;-50
2023/10/05 06:46:23;;;;;;;;;;;22.70;70.00;;;;;;5117288;28;19996;-49
2023/10/05 06:48:50;;;;;;;;;;;22.70;70.10;;;;;;5124031;28;19911;-49
2023/10/05 06:51:28;;;;;;;;;;;22.70;70.10;;;;;;5118434;28;19940;-48
2023/10/05 06:53:54;;;;;;;;;;;22.70;70.10;;;;;;5123549;27;19912;-50
2023/10/05 06:56:20;;;;;;;;;;;22.60;70.10;;;;;;5122505;28;19911;-50
2023/10/05 06:58:47;;;;;;;;;;;22.60;70.10;;;;;;5105300;27;19979;-49
2023/10/05 07:01:13;;;;;;;;;;;22.60;70.10;;;;;;5121109;27;19920;-48
2023/10/05 07:03:39;;;;;;;;;;;22.60;70.20;;;;;;5137852;27;20019;-50
2023/10/05 07:06:06;;;;;;;;;;;22.60;70.30;;;;;;5121593;28;20330;-48
2023/10/05 07:08:34;;;;;;;;;;;22.60;70.30;;;;;;5123245;28;19951;-48
2023/10/05 07:11:00;;;;;;;;;;;22.60;70.30;;;;;;5122462;28;19915;-49
2023/10/05 07:13:28;;;;;;;;;;;22.60;70.20;;;;;;5137839;27;19911;-48
2023/10/05 07:15:57;;;;;;;;;;;22.60;70.30;;;;;;5112319;28;20152;-47
2023/10/05 07:18:24;;;;;;;;;;;22.50;70.20;;;;;;5122620;28;19935;-49
2023/10/05 07:20:50;;;;;;;;;;;22.60;70.30;;;;;;5123064;28;19925;-47
2023/10/05 07:23:17;;;;;;;;;;;22.50;70.30;;;;;;5104052;28;20009;-48
2023/10/05 07:25:43;;;;;;;;;;;22.50;70.20;;;;;;5118320;28;19916;-49
2023/10/05 07:28:15;;;;;;;;;;;22.50;70.30;;;;;;5122557;28;20441;-48
2023/10/05 07:30:41;;;;;;;;;;;22.50;70.30;;;;;;5123195;28;19949;-48
2023/10/05 07:33:07;;;;;;;;;;;22.50;70.40;;;;;;5115563;28;19914;-47
2023/10/05 07:35:33;;;;;;;;;;;22.50;70.40;;;;;;5120998;28;19916;-48
2023/10/05 07:37:59;;;;;;;;;;;22.50;70.30;;;;;;5122509;28;19919;-48
2023/10/05 07:40:25;;;;;;;;;;;22.40;71.10;;;;;;5122304;28;19922;-49
2023/10/05 07:42:51;;;;;;;;;;;22.40;70.30;;;;;;5123233;28;19912;-49
2023/10/05 07:45:17;;;;;;;;;;;22.40;70.30;;;;;;5120772;27;19916;-47
2023/10/05 07:47:43;;;;;;;;;;;22.40;70.30;;;;;;5115628;28;19947;-47
2023/10/05 07:50:10;;;;;;;;;;;22.40;70.40;;;;;;5121968;28;20458;-47
2023/10/05 07:52:38;;;;;;;;;;;22.40;70.40;;;;;;5116969;28;19907;-48
2023/10/05 07:55:05;;;;;;;;;;;22.40;70.40;;;;;;5122243;28;19951;-48
2023/10/05 07:57:31;;;;;;;;;;;22.40;70.40;;;;;;5119695;28;19918;-48
2023/10/05 07:59:57;;;;;;;;;;;22.40;70.40;;;;;;5122507;28;19947;-49
2023/10/05 08:02:23;;;;;;;;;;;22.30;70.40;;;;;;5114356;28;19919;-47
2023/10/05 08:04:49;;;;;;;;;;;22.30;70.50;;;;;;5122189;28;19911;-48
2023/10/05 08:07:15;;;;;;;;;;;22.30;70.50;;;;;;5122644;28;19918;-47
2023/10/05 08:09:44;;;;;;;;;;;22.30;70.40;;;;;;5120940;28;19988;-47
2023/10/05 08:12:11;;;;;;;;;;;22.30;70.50;;;;;;5121304;28;20339;-49
2023/10/05 08:14:37;;;;;;;;;;;22.30;70.60;;;;;;5114473;28;19919;-47
2023/10/05 08:17:03;;;;;;;;;;;22.30;70.60;;;;;;5121122;28;19916;-47
2023/10/05 08:19:29;;;;;;;;;;;22.30;70.60;;;;;;5114449;28;19912;-47
2023/10/05 08:21:55;;;;;;;;;;;22.30;70.60;;;;;;5122007;28;19924;-47
2023/10/05 08:24:23;;;;;;;;;;;22.30;70.60;;;;;;5114315;28;19918;-47
2023/10/05 08:26:52;;;;;;;;;;;22.30;70.60;;;;;;5122732;28;19961;-48
2023/10/05 08:29:22;;;;;;;;;;;22.20;70.70;;;;;;5119664;28;19954;-46
2023/10/05 08:31:51;;;;;;;;;;;22.20;71.30;;;;;;5114444;28;19930;-48
2023/10/05 08:34:23;;;;;;;;;;;22.20;70.70;;;;;;5121668;28;19986;-47
2023/10/05 08:36:54;;;;;;;;;;;22.20;70.70;;;;;;5122258;28;19958;-48
2023/10/05 08:39:26;;;;;;;;;;;22.20;71.40;;;;;;5121323;28;19912;-47
2023/10/05 08:42:02;;;;;;;;;;;22.20;70.70;;;;;;5119680;28;19946;-49
2023/10/05 08:44:30;;;;;;;;;;;22.20;70.70;;;;;;5120510;28;19911;-48
2023/10/05 08:46:56;;;;;;;;;;;22.20;70.70;;;;;;5124878;28;20388;-49
2023/10/05 08:49:23;;;;;;;;;;;22.10;70.70;;;;;;5122116;28;19912;-46
2023/10/05 08:51:49;;;;;;;;;;;22.10;70.70;;;;;;5119734;28;19956;-48
2023/10/05 08:54:15;;;;;;;;;;;22.10;70.80;;;;;;5121856;28;19954;-47
2023/10/05 08:56:45;;;;;;;;;;;22.10;70.80;;;;;;5125364;28;19918;-47
2023/10/05 08:59:13;;;;;;;;;;;22.10;70.90;;;;;;5120008;28;19927;-47
2023/10/05 09:01:40;;;;;;;;;;;22.10;70.80;;;;;;5126033;28;19916;-47
2023/10/05 09:06:33;;;;;;;;;;;22.10;70.90;;;;;;5125311;28;19998;-47
2023/10/05 09:09:11;;;;;;;;;;;22.10;71.00;;;;;;5103600;28;19918;-47
2023/10/05 09:11:37;;;;;;;;;;;22.00;70.80;;;;;;5116772;28;19911;-48
2023/10/05 09:17:07;;;;;;;;;;;22.00;70.90;;;;;;5044856;28;20329;-48
2023/10/05 09:19:37;;;;;;;;;;;22.00;71.00;;;;;;5042682;28;19924;-48
2023/10/05 09:24:35;;;;;;;;;;;22.00;71.00;;;;;;5043051;28;19920;-48
2023/10/05 09:27:12;;;;;;;;;;;22.00;71.00;;;;;;5044750;28;20341;-47
2023/10/05 09:29:39;;;;;;;;;;;22.00;71.00;;;;;;5042336;28;19920;-47
2023/10/05 09:32:11;;;;;;;;;;;22.00;71.10;;;;;;5041730;28;20405;-47
2023/10/05 09:34:38;;;;;;;;;;;22.00;71.10;;;;;;5045733;28;20715;-46
2023/10/05 09:37:07;;;;;;;;;;;22.00;71.10;;;;;;5068947;28;19912;-47
2023/10/05 09:39:43;;;;;;;;;;;22.00;71.10;;;;;;5042198;28;19927;-46
2023/10/05 09:42:25;;;;;;;;;;;21.90;71.10;;;;;;5041275;28;21912;-48
2023/10/05 09:44:52;;;;;;;;;;;21.90;71.20;;;;;;5037597;28;19913;-48
2023/10/05 09:47:20;;;;;;;;;;;21.90;71.10;;;;;;5041308;28;19909;-47
2023/10/05 09:49:45;;;;;;;;;;;21.90;71.20;;;;;;5041697;28;19976;-47
2023/10/05 09:52:12;;;;;;;;;;;21.90;71.20;;;;;;5040120;28;19909;-48
2023/10/05 09:54:38;;;;;;;;;;;21.90;71.20;;;;;;5117706;28;20452;-47
2023/10/05 09:57:10;;;;;;;;;;;21.90;71.20;;;;;;5105399;28;19916;-46
2023/10/05 09:59:38;;;;;;;;;;;21.80;71.20;;;;;;5123118;27;19963;-47
2023/10/05 10:02:03;;;;;;;;;;;21.80;71.20;;;;;;5123161;27;19945;-47
2023/10/05 10:04:35;;;;;;;;;;;21.90;71.30;;;;;;5116978;28;19975;-47
2023/10/05 10:07:03;;;;;;;;;;;21.80;71.20;;;;;;5102928;28;19923;-48
2023/10/05 10:09:28;;;;;;;;;;;21.80;71.20;;;;;;5115249;28;19911;-48
2023/10/05 10:12:01;;;;;;;;;;;21.80;71.20;;;;;;5124374;28;20011;-47
2023/10/05 10:14:27;;;;;;;;;;;21.80;71.30;;;;;;5116494;27;19940;-47
2023/10/05 10:17:00;;;;;;;;;;;21.80;71.30;;;;;;5139451;27;20492;-47
2023/10/05 10:19:26;;;;;;;;;;;21.80;71.30;;;;;;5115977;28;19994;-46
2023/10/05 10:22:07;;;;;;;;;;;21.80;71.30;;;;;;5122330;28;19950;-46
2023/10/05 10:24:34;;;;;;;;;;;21.80;71.30;;;;;;5124156;27;19919;-47
2023/10/05 10:27:11;;;;;;;;;;;21.80;71.40;;;;;;5123031;28;20383;-46
2023/10/05 10:29:46;;;;;;;;;;;21.70;71.40;;;;;;5116503;28;19912;-46
2023/10/05 10:32:18;;;;;;;;;;;21.70;71.40;;;;;;5115810;28;19959;-48
2023/10/05 10:34:50;;;;;;;;;;;21.70;71.40;;;;;;5128610;27;19915;-47
2023/10/05 10:37:42;;;;;;;;;;;21.70;71.40;;;;;;5125102;27;19912;-47
2023/10/05 10:42:50;;;;;;;;;;;21.70;71.40;;;;;;5119421;28;19911;-47
2023/10/05 10:45:23;;;;;;;;;;;21.70;71.50;;;;;;5126347;27;20688;-48
2023/10/05 10:47:50;;;;;;;;;;;21.70;71.40;;;;;;5114945;28;19911;-46
2023/10/05 10:50:21;;;;;;;;;;;21.70;71.50;;;;;;5122725;28;19912;-46
2023/10/05 10:52:50;;;;;;;;;;;21.60;71.50;;;;;;5117721;27;19915;-46
2023/10/05 10:55:16;;;;;;;;;;;21.60;71.40;;;;;;5128179;27;19918;-48
2023/10/05 10:57:44;;;;;;;;;;;21.60;71.40;;;;;;5118490;27;19922;-47
2023/10/05 11:02:56;;;;;;;;;;;21.60;71.50;;;;;;5122872;27;19945;-47
2023/10/05 11:05:35;;;;;;;;;;;21.60;71.50;;;;;;5102053;28;19907;-46
2023/10/05 11:08:01;;;;;;;;;;;21.60;71.50;;;;;;5124530;27;20642;-46
2023/10/05 11:10:30;;;;;;;;;;;21.60;71.60;;;;;;5115717;28;19911;-46
2023/10/05 11:13:14;;;;;;;;;;;21.50;72.30;;;;;;5122865;28;19915;-47
2023/10/05 11:15:50;;;;;;;;;;;21.60;71.60;;;;;;5124940;27;19912;-47
2023/10/05 11:18:18;;;;;;;;;;;21.60;71.60;;;;;;5122482;28;20048;-46
2023/10/05 11:20:52;;;;;;;;;;;21.50;71.60;;;;;;5116887;28;19923;-46
2023/10/05 11:23:25;;;;;;;;;;;21.60;71.60;;;;;;5120672;28;20953;-47
2023/10/05 11:26:17;;;;;;;;;;;21.50;71.70;;;;;;5117855;28;19993;-48
2023/10/05 11:28:39;;;;;;;;;;;21.50;72.30;;;;;;5115077;28;19914;-46
2023/10/05 11:31:05;;;;;;;;;;;21.50;71.70;;;;;;5121333;28;19943;-46
2023/10/05 11:33:34;;;;;;;;;;;21.50;71.60;;;;;;5120452;28;20650;-46
2023/10/05 11:36:17;;;;;;;;;;;21.50;71.70;;;;;;5122238;28;19916;-46
2023/10/05 11:38:43;;;;;;;;;;;21.50;71.80;;;;;;5110457;28;19912;-46
2023/10/05 11:41:09;;;;;;;;;;;21.50;71.80;;;;;;5120369;28;19915;-47
2023/10/05 11:43:35;;;;;;;;;;;21.50;71.80;;;;;;5116749;27;19912;-47
2023/10/05 11:46:17;;;;;;;;;;;21.50;71.80;;;;;;5119915;28;20029;-47
2023/10/05 11:48:48;;;;;;;;;;;21.50;71.90;;;;;;5115771;28;19911;-46
2023/10/05 11:51:19;;;;;;;;;;;21.40;71.80;;;;;;5112938;28;19912;-46
2023/10/05 11:53:45;;;;;;;;;;;21.40;71.80;;;;;;5114899;28;20387;-47
2023/10/05 11:56:10;;;;;;;;;;;21.40;71.80;;;;;;5123770;28;19913;-46
2023/10/05 11:58:40;;;;;;;;;;;21.40;71.90;;;;;;5099652;28;19919;-46
2023/10/05 12:01:06;;;;;;;;;;;21.40;71.90;;;;;;5119012;28;19920;-46
2023/10/05 12:03:32;;;;;;;;;;;21.40;71.90;;;;;;5114096;28;19912;-47
2023/10/05 12:06:01;;;;;;;;;;;21.40;71.90;;;;;;5122147;28;20641;-46
2023/10/05 12:08:28;;;;;;;;;;;21.40;71.90;;;;;;5115309;28;19919;-47
2023/10/05 12:10:59;;;;;;;;;;;21.40;71.90;;;;;;5122183;28;19912;-46
2023/10/05 12:13:27;;;;;;;;;;;21.40;71.90;;;;;;5122749;28;19911;-47
2023/10/05 12:15:53;;;;;;;;;;;21.40;72.00;;;;;;5122560;28;19938;-46
2023/10/05 12:18:19;;;;;;;;;;;21.30;71.90;;;;;;5103169;28;19920;-46
2023/10/05 12:20:48;;;;;;;;;;;21.30;71.90;;;;;;5113917;28;19957;-46
2023/10/05 12:23:14;;;;;;;;;;;21.30;71.90;;;;;;5121847;28;19920;-47
2023/10/05 12:25:53;;;;;;;;;;;21.30;71.90;;;;;;5121952;28;19919;-46
2023/10/05 12:28:23;;;;;;;;;;;21.30;71.90;;;;;;5121094;28;19912;-46
2023/10/05 12:30:49;;;;;;;;;;;21.30;72.00;;;;;;5114826;28;19959;-46
